Bruce Mines, Canada
Current Conditions -  °F | °C
As of 4:35 AM on Saturday 25 Oct 2014 (Local Time) from KDRM Reporting Station
Overcast Overcast  
Wind Chill: 45°   Ceiling: 1600
Heat Index: 49°   Visibility: 10mi
Dew Point: 47°   Wind: 8mph
Humidity: 95%   Direction: 210°SSW
Pressure: 29.68"   Gusts: NA
Location:  46.3°N, 83.79°W
Report Text: KDRM 250835Z AUTO 21007KT 10SM BKN016 OVC023 09/09 A2968 RMK AO2 T00920085
Loading
Personal Weather Stations






























Interactive Weather Map New forecast layout! Learn more

10-Day Weather Forecast

Advertisements
Track Severe Weather on mobile